createdAt,value
2018-02-21T00:01:22.441Z,42.50
2018-02-21T00:03:49.897Z,44.60
2018-02-21T00:06:17.358Z,43.77
2018-02-21T00:08:44.824Z,44.13
2018-02-21T00:11:12.286Z,43.87
2018-02-21T00:13:39.742Z,41.00
2018-02-21T00:16:07.204Z,41.13
2018-02-21T00:18:34.652Z,42.10
2018-02-21T00:21:02.112Z,42.30
2018-02-21T00:23:30.322Z,43.97
2018-02-21T00:25:57.796Z,44.70
2018-02-21T00:28:25.252Z,42.40
2018-02-21T00:30:52.708Z,42.50
2018-02-21T00:33:20.161Z,45.80
2018-02-21T00:35:47.640Z,44.97
2018-02-21T00:38:15.077Z,44.70
2018-02-21T00:40:42.543Z,42.47
2018-02-21T00:43:10.005Z,40.60
2018-02-21T00:45:37.468Z,43.77
2018-02-21T00:48:04.946Z,44.57
2018-02-21T00:50:32.412Z,41.43
2018-02-21T00:52:59.898Z,41.03
2018-02-21T00:55:28.114Z,40.87
2018-02-21T00:57:56.338Z,45.30
2018-02-21T01:00:23.804Z,44.00
2018-02-21T01:02:51.263Z,41.70
2018-02-21T01:05:18.729Z,44.57
2018-02-21T01:07:46.188Z,43.63
2018-02-21T01:10:13.648Z,45.67
2018-02-21T01:12:41.112Z,43.70
2018-02-21T01:15:08.565Z,43.47
2018-02-21T01:17:36.016Z,45.93
2018-02-21T01:20:03.471Z,45.03
2018-02-21T01:22:31.042Z,43.50
2018-02-21T01:24:58.486Z,43.83
2018-02-21T01:27:26.700Z,45.50
2018-02-21T01:29:54.145Z,44.00
2018-02-21T01:32:21.608Z,44.93
2018-02-21T01:34:49.071Z,44.37
2018-02-21T01:37:16.548Z,44.83
2018-02-21T01:39:44.029Z,43.80
2018-02-21T01:42:11.490Z,44.73
2018-02-21T01:44:38.946Z,45.00
2018-02-21T01:47:06.415Z,45.50
2018-02-21T01:49:33.858Z,48.53
2018-02-21T01:52:01.311Z,44.57
2018-02-21T01:54:28.770Z,51.10
2018-02-21T01:56:56.216Z,47.00
2018-02-21T01:59:23.668Z,49.63
2018-02-21T02:01:51.891Z,46.90
2018-02-21T02:04:19.333Z,43.50
2018-02-21T02:06:46.805Z,48.97
2018-02-21T02:09:14.276Z,48.30
2018-02-21T02:11:41.750Z,47.93
2018-02-21T02:14:09.193Z,48.77
2018-02-21T02:16:36.672Z,46.43
2018-02-21T02:19:04.129Z,48.23
2018-02-21T02:21:31.588Z,48.60
2018-02-21T02:23:59.059Z,44.70
2018-02-21T02:26:26.531Z,46.67
2018-02-21T02:28:53.977Z,47.93
2018-02-21T02:31:21.436Z,45.20
2018-02-21T02:33:48.885Z,47.90
2018-02-21T02:36:16.350Z,45.10
2018-02-21T02:41:42.565Z,44.87
2018-02-21T02:44:10.785Z,45.83
2018-02-21T02:46:38.273Z,46.87
2018-02-21T02:49:05.731Z,47.27
2018-02-21T02:51:33.201Z,46.03
2018-02-21T02:54:00.669Z,46.83
2018-02-21T02:56:28.124Z,43.83
2018-02-21T02:58:55.573Z,44.93
2018-02-21T03:01:23.038Z,46.80
2018-02-21T03:03:50.495Z,44.50
2018-02-21T03:06:17.954Z,51.87
2018-02-21T03:08:45.409Z,49.30
2018-02-21T03:11:12.878Z,45.90
2018-02-21T03:13:40.386Z,50.43
2018-02-21T03:16:07.808Z,47.47
2018-02-21T03:18:35.264Z,47.03
2018-02-21T03:21:02.720Z,47.37
2018-02-21T03:23:30.188Z,47.30
2018-02-21T03:25:57.653Z,47.87
2018-02-21T03:28:25.113Z,50.73
2018-02-21T03:30:52.569Z,48.17
2018-02-21T03:33:20.028Z,46.70
2018-02-21T03:35:47.486Z,49.03
2018-02-21T03:38:14.953Z,48.97
2018-02-21T03:40:42.416Z,51.63
2018-02-21T03:43:09.884Z,50.10
2018-02-21T03:45:37.334Z,47.50
2018-02-21T03:48:04.798Z,48.57
2018-02-21T03:50:32.261Z,49.73
2018-02-21T03:52:59.731Z,49.20
2018-02-21T03:55:27.190Z,48.03
2018-02-21T03:57:54.657Z,47.33
2018-02-21T04:00:22.120Z,48.20
2018-02-21T04:02:49.591Z,50.77
2018-02-21T04:05:17.032Z,48.63
2018-02-21T04:07:44.498Z,48.20
2018-02-21T04:10:12.716Z,50.97
2018-02-21T04:12:40.940Z,47.70
2018-02-21T04:15:08.388Z,51.50
2018-02-21T04:17:35.860Z,49.63
2018-02-21T04:20:03.311Z,48.33
2018-02-21T04:22:30.772Z,53.17
2018-02-21T04:24:58.237Z,54.53
2018-02-21T04:27:25.698Z,48.97
2018-02-21T04:29:53.153Z,49.37
2018-02-21T04:32:20.625Z,55.17
2018-02-21T04:34:48.081Z,51.07
2018-02-21T04:37:15.544Z,53.77
2018-02-21T04:39:43.006Z,58.73
2018-02-21T04:42:10.472Z,53.63
2018-02-21T04:44:37.939Z,49.37
2018-02-21T04:47:05.396Z,52.83
2018-02-21T04:49:32.861Z,52.53
2018-02-21T04:52:00.321Z,53.50
2018-02-21T04:54:31.336Z,52.10
2018-02-21T05:00:01.898Z,50.13
2018-02-21T05:02:29.362Z,51.00
2018-02-21T05:04:56.824Z,53.53
2018-02-21T05:07:24.298Z,53.23
2018-02-21T05:09:51.771Z,50.90
2018-02-21T05:12:19.222Z,53.63
2018-02-21T05:14:46.681Z,52.30
2018-02-21T05:17:14.136Z,55.83
2018-02-21T05:19:41.609Z,50.73
2018-02-21T05:22:09.057Z,51.17
2018-02-21T05:24:36.521Z,52.83
2018-02-21T05:27:03.980Z,53.23
2018-02-21T05:29:31.448Z,53.20
2018-02-21T05:31:58.913Z,52.60
2018-02-21T05:34:26.377Z,57.03
2018-02-21T05:36:53.833Z,50.70
2018-02-21T05:39:21.294Z,49.27
2018-02-21T05:41:48.753Z,49.70
2018-02-21T05:44:16.226Z,50.90
2018-02-21T05:46:43.684Z,46.73
2018-02-21T05:49:11.145Z,47.23
2018-02-21T05:51:38.604Z,48.27
2018-02-21T05:54:06.076Z,41.53
2018-02-21T05:56:33.531Z,43.70
2018-02-21T05:59:00.991Z,43.17
2018-02-21T06:01:28.434Z,43.23
2018-02-21T06:03:56.680Z,44.70
2018-02-21T06:06:24.135Z,40.23
2018-02-21T06:08:51.597Z,40.23
2018-02-21T06:11:19.082Z,37.30
2018-02-21T06:13:46.525Z,38.47
2018-02-21T06:16:13.986Z,36.37
2018-02-21T06:18:41.449Z,39.40
2018-02-21T06:21:08.902Z,42.57
2018-02-21T06:23:36.357Z,46.77
2018-02-21T06:26:03.809Z,47.20
2018-02-21T06:28:31.269Z,46.33
2018-02-21T06:30:58.720Z,41.60
2018-02-21T06:33:26.188Z,42.87
2018-02-21T06:35:53.645Z,48.77
2018-02-21T06:38:21.104Z,48.67
2018-02-21T06:40:48.567Z,49.10
2018-02-21T06:43:16.013Z,54.63
2018-02-21T06:45:44.250Z,55.10
2018-02-21T06:48:11.700Z,53.17
2018-02-21T06:50:39.163Z,55.47
2018-02-21T06:53:06.623Z,53.63
2018-02-21T06:55:34.091Z,62.57
2018-02-21T06:58:01.533Z,63.23
2018-02-21T07:00:29.008Z,58.60
2018-02-21T07:02:56.457Z,58.53
2018-02-21T07:05:23.916Z,64.37
2018-02-21T07:07:51.386Z,64.33
2018-02-21T07:10:18.845Z,60.83
2018-02-21T07:12:46.298Z,57.27
2018-02-21T07:15:13.757Z,63.37
2018-02-21T07:17:41.223Z,60.20
2018-02-21T07:20:08.689Z,63.47
2018-02-21T07:22:36.148Z,62.47
2018-02-21T07:25:03.601Z,62.60
2018-02-21T07:27:31.053Z,60.90
2018-02-21T07:29:59.288Z,61.17
2018-02-21T07:32:26.737Z,64.60
2018-02-21T07:34:54.200Z,62.50
2018-02-21T07:37:21.661Z,62.10
2018-02-21T07:39:49.113Z,57.23
2018-02-21T07:42:16.566Z,61.97
2018-02-21T07:44:44.025Z,64.13
2018-02-21T07:47:11.479Z,62.03
2018-02-21T07:49:38.951Z,56.37
2018-02-21T07:52:06.409Z,59.27
2018-02-21T07:54:33.866Z,56.33
2018-02-21T07:57:01.321Z,56.20
2018-02-21T07:59:29.581Z,50.60
2018-02-21T08:01:57.004Z,52.33
2018-02-21T08:04:24.474Z,57.33
2018-02-21T08:06:51.942Z,55.97
2018-02-21T08:09:19.400Z,57.97
2018-02-21T08:11:46.851Z,57.13
2018-02-21T08:14:14.318Z,59.60
2018-02-21T08:16:41.766Z,61.80
2018-02-21T08:19:09.217Z,59.70
2018-02-21T08:21:36.680Z,57.90
2018-02-21T08:24:04.135Z,63.70
2018-02-21T08:26:31.593Z,61.63
2018-02-21T08:28:59.056Z,61.43
2018-02-21T08:31:26.518Z,67.53
2018-02-21T08:33:53.961Z,66.13
2018-02-21T08:36:22.197Z,66.40
2018-02-21T08:38:49.654Z,66.77
2018-02-21T08:41:17.130Z,67.77
2018-02-21T08:43:44.608Z,67.23
2018-02-21T08:46:12.057Z,68.37
2018-02-21T08:48:39.504Z,62.57
2018-02-21T08:51:06.967Z,63.73
2018-02-21T08:53:34.422Z,68.97
2018-02-21T08:56:01.882Z,70.77
2018-02-21T08:58:29.336Z,67.27
2018-02-21T09:00:56.791Z,72.23
2018-02-21T09:03:24.233Z,76.17
2018-02-21T09:05:52.454Z,77.10
2018-02-21T09:08:19.917Z,69.90
2018-02-21T09:10:47.379Z,68.13
2018-02-21T09:13:14.840Z,77.80
2018-02-21T09:15:42.306Z,72.37
2018-02-21T09:18:09.753Z,71.60
2018-02-21T09:20:37.212Z,67.53
2018-02-21T09:23:04.680Z,71.13
2018-02-21T09:25:32.157Z,70.67
2018-02-21T09:28:00.369Z,68.60
2018-02-21T09:30:27.832Z,70.73
2018-02-21T09:32:55.287Z,69.70
2018-02-21T09:35:22.744Z,65.37
2018-02-21T09:37:50.185Z,67.00
2018-02-21T09:40:17.644Z,68.33
2018-02-21T09:42:45.109Z,68.40
2018-02-21T09:45:12.582Z,71.83
2018-02-21T09:47:40.033Z,68.13
2018-02-21T09:50:07.477Z,68.67
2018-02-21T09:52:34.937Z,72.53
2018-02-21T09:55:02.401Z,71.70
2018-02-21T09:57:29.865Z,73.23
2018-02-21T09:59:57.317Z,66.93
2018-02-21T10:02:24.786Z,74.93
2018-02-21T10:04:52.246Z,72.33
2018-02-21T10:07:19.714Z,70.40
2018-02-21T10:09:47.161Z,72.17
2018-02-21T10:12:14.624Z,69.27
2018-02-21T10:14:42.075Z,70.90
2018-02-21T10:17:10.297Z,69.30
2018-02-21T10:19:37.749Z,69.60
2018-02-21T10:22:05.214Z,70.13
2018-02-21T10:24:32.664Z,71.80
2018-02-21T10:27:00.129Z,66.10
2018-02-21T10:29:27.586Z,67.87
2018-02-21T10:31:55.045Z,66.27
2018-02-21T10:34:22.508Z,69.23
2018-02-21T10:36:49.977Z,70.73
2018-02-21T10:39:17.438Z,70.43
2018-02-21T10:41:44.898Z,65.43
2018-02-21T10:44:12.355Z,70.47
2018-02-21T10:46:39.809Z,63.70
2018-02-21T10:49:07.262Z,69.40
2018-02-21T10:51:35.500Z,60.73
2018-02-21T10:54:02.953Z,69.03
2018-02-21T10:56:30.414Z,74.00
2018-02-21T10:58:57.873Z,63.63
2018-02-21T11:01:26.133Z,69.93
2018-02-21T11:03:53.594Z,65.83
2018-02-21T11:06:21.053Z,64.00
2018-02-21T11:08:48.517Z,62.07
2018-02-21T11:11:16.004Z,62.47
2018-02-21T11:13:43.470Z,63.30
2018-02-21T11:16:10.928Z,63.07
2018-02-21T11:18:38.386Z,61.20
2018-02-21T11:21:05.857Z,60.37
2018-02-21T11:23:33.366Z,61.80
2018-02-21T11:26:00.792Z,63.33
2018-02-21T11:28:28.268Z,62.47
2018-02-21T11:30:55.706Z,58.43
2018-02-21T11:33:23.162Z,54.43
2018-02-21T11:35:50.613Z,55.23
2018-02-21T11:38:18.093Z,54.67
2018-02-21T11:40:45.556Z,53.87
2018-02-21T11:43:13.025Z,57.63
2018-02-21T11:45:40.480Z,58.37
2018-02-21T11:48:08.704Z,54.83
2018-02-21T11:50:36.924Z,60.73
2018-02-21T11:53:04.376Z,57.83
2018-02-21T11:55:31.829Z,56.43
2018-02-21T11:57:59.308Z,55.83
2018-02-21T12:00:26.788Z,57.20
2018-02-21T12:02:54.242Z,57.77
2018-02-21T12:05:21.701Z,54.47
2018-02-21T12:07:49.166Z,54.47
2018-02-21T12:10:16.624Z,51.73
2018-02-21T12:12:44.097Z,56.83
2018-02-21T12:15:11.538Z,55.73
2018-02-21T12:17:39.000Z,56.13
2018-02-21T12:20:06.465Z,57.27
2018-02-21T12:22:33.921Z,61.60
2018-02-21T12:25:01.384Z,58.93
2018-02-21T12:27:28.853Z,55.67
2018-02-21T12:29:56.329Z,57.80
2018-02-21T12:35:25.161Z,55.60
2018-02-21T12:37:52.768Z,57.07
2018-02-21T12:40:25.842Z,54.83
2018-02-21T12:42:54.079Z,55.47
2018-02-21T12:45:22.340Z,57.67
2018-02-21T12:47:49.816Z,61.87
2018-02-21T12:50:17.281Z,56.07
2018-02-21T12:52:44.742Z,58.20
2018-02-21T12:55:12.200Z,54.93
2018-02-21T12:57:39.667Z,52.20
2018-02-21T13:00:07.165Z,55.57
2018-02-21T13:02:34.596Z,53.03
2018-02-21T13:05:02.043Z,55.27
2018-02-21T13:07:29.513Z,53.10
2018-02-21T13:09:56.975Z,53.60
2018-02-21T13:12:24.445Z,57.03
2018-02-21T13:14:51.904Z,53.60
2018-02-21T13:17:19.363Z,55.20
2018-02-21T13:19:46.809Z,57.23
2018-02-21T13:22:14.295Z,51.40
2018-02-21T13:24:41.750Z,51.70
2018-02-21T13:27:09.215Z,57.83
2018-02-21T13:29:36.673Z,53.77
2018-02-21T13:32:04.139Z,52.73
2018-02-21T13:34:32.365Z,47.97
2018-02-21T13:37:00.592Z,53.47
2018-02-21T13:39:28.060Z,49.20
2018-02-21T13:41:55.527Z,48.90
2018-02-21T13:44:22.982Z,48.13
2018-02-21T13:46:50.475Z,49.47
2018-02-21T13:49:17.922Z,49.50
2018-02-21T13:51:45.386Z,52.20
2018-02-21T13:54:12.853Z,53.23
2018-02-21T13:56:40.312Z,54.17
2018-02-21T13:59:07.784Z,47.37
2018-02-21T14:01:35.253Z,46.30
2018-02-21T14:04:02.721Z,51.90
2018-02-21T14:06:30.176Z,48.47
2018-02-21T14:08:57.670Z,51.60
2018-02-21T14:11:25.905Z,50.87
2018-02-21T14:13:53.365Z,44.93
2018-02-21T14:16:20.845Z,47.37
2018-02-21T14:18:48.322Z,48.20
2018-02-21T14:21:16.552Z,46.30
2018-02-21T14:23:44.033Z,40.13
2018-02-21T14:26:11.488Z,41.47
2018-02-21T14:28:39.751Z,41.90
2018-02-21T14:31:07.220Z,42.60
2018-02-21T14:33:34.712Z,41.50
2018-02-21T14:36:02.197Z,42.30
2018-02-21T14:38:30.434Z,41.60
2018-02-21T14:40:57.914Z,44.30
2018-02-21T14:43:25.374Z,45.83
2018-02-21T14:45:53.397Z,45.43
2018-02-21T14:48:20.857Z,41.20
2018-02-21T14:50:48.318Z,41.73
2018-02-21T14:53:15.809Z,41.73
2018-02-21T14:55:43.278Z,41.30
2018-02-21T14:58:10.741Z,46.20
2018-02-21T15:00:38.287Z,46.60
2018-02-21T15:03:05.753Z,43.73
2018-02-21T15:05:33.212Z,43.00
2018-02-21T15:08:00.687Z,41.00
2018-02-21T15:10:28.149Z,42.10
2018-02-21T15:12:55.615Z,45.27
2018-02-21T15:15:23.115Z,173.83
2018-02-21T15:17:51.365Z,51.83
2018-02-21T15:20:19.606Z,90.03
2018-02-21T15:22:47.064Z,43.63
2018-02-21T15:25:15.347Z,40.73
2018-02-21T15:27:42.821Z,43.73
2018-02-21T15:30:10.283Z,38.37
2018-02-21T15:32:37.746Z,40.77
2018-02-21T15:35:05.238Z,38.70
2018-02-21T15:37:32.695Z,42.37
2018-02-21T15:40:00.168Z,35.60
2018-02-21T15:42:27.627Z,35.57
2018-02-21T15:44:55.110Z,38.77
2018-02-21T15:47:22.569Z,38.93
2018-02-21T15:49:50.043Z,41.43
2018-02-21T15:52:17.548Z,39.67
2018-02-21T15:54:45.051Z,39.37
2018-02-21T15:57:12.505Z,37.83
2018-02-21T15:59:39.974Z,40.47
2018-02-21T16:02:07.437Z,38.63
2018-02-21T16:04:34.911Z,37.37
2018-02-21T16:07:02.386Z,36.93
2018-02-21T16:09:29.865Z,35.10
2018-02-21T16:11:58.098Z,34.87
2018-02-21T16:14:25.567Z,34.70
2018-02-21T16:16:53.035Z,32.50
2018-02-21T16:19:20.510Z,31.87
2018-02-21T16:21:47.969Z,33.23
2018-02-21T16:24:15.439Z,32.43
2018-02-21T16:26:42.900Z,35.23
2018-02-21T16:29:10.382Z,35.93
2018-02-21T16:31:38.630Z,33.47
2018-02-21T16:34:06.089Z,33.37
2018-02-21T16:36:33.559Z,33.10
2018-02-21T16:39:01.029Z,33.83
2018-02-21T16:41:28.504Z,32.73
2018-02-21T16:43:55.957Z,33.50
2018-02-21T16:46:23.438Z,30.57
2018-02-21T16:48:51.673Z,33.30
2018-02-21T16:51:19.156Z,33.17
2018-02-21T16:53:52.346Z,33.07
2018-02-21T16:56:19.815Z,33.07
2018-02-21T16:58:47.264Z,35.30
2018-02-21T17:01:14.731Z,33.93
2018-02-21T17:03:42.179Z,33.83
2018-02-21T17:06:09.644Z,35.10
2018-02-21T17:08:37.097Z,32.37
2018-02-21T17:11:04.561Z,31.90
2018-02-21T17:13:32.016Z,34.83
2018-02-21T17:15:59.485Z,31.20
2018-02-21T17:18:26.948Z,35.47
2018-02-21T17:20:54.406Z,39.70
2018-02-21T17:23:21.870Z,31.87
2018-02-21T17:25:49.328Z,39.03
2018-02-21T17:28:16.786Z,37.03
2018-02-21T17:30:44.259Z,37.93
2018-02-21T17:33:11.721Z,40.60
2018-02-21T17:35:39.185Z,42.43
2018-02-21T17:38:06.640Z,35.63
2018-02-21T17:40:34.119Z,35.63
2018-02-21T17:43:01.569Z,38.03
2018-02-21T17:45:29.033Z,35.70
2018-02-21T17:47:56.507Z,35.83
2018-02-21T17:50:23.956Z,34.03
2018-02-21T17:52:51.416Z,35.33
2018-02-21T17:55:18.872Z,37.27
2018-02-21T17:57:46.350Z,35.63
2018-02-21T18:00:13.825Z,36.73
2018-02-21T18:02:41.287Z,37.67
2018-02-21T18:05:08.764Z,37.10
2018-02-21T18:07:36.222Z,38.40
2018-02-21T18:10:03.678Z,37.83
2018-02-21T18:12:31.128Z,39.37
2018-02-21T18:14:58.576Z,37.77
2018-02-21T18:17:26.045Z,41.70
2018-02-21T18:19:53.492Z,35.37
2018-02-21T18:22:20.963Z,37.77
2018-02-21T18:24:48.441Z,34.50
2018-02-21T18:27:15.905Z,40.70
2018-02-21T18:29:43.362Z,38.60
2018-02-21T18:32:10.834Z,41.13
2018-02-21T18:34:38.282Z,38.77
2018-02-21T18:37:05.743Z,39.40
2018-02-21T18:39:33.201Z,37.93
2018-02-21T18:42:00.661Z,37.43
2018-02-21T18:44:28.121Z,43.37
2018-02-21T18:46:56.586Z,37.23
2018-02-21T18:49:24.044Z,37.30
2018-02-21T18:51:51.539Z,42.17
2018-02-21T18:54:19.003Z,40.03
2018-02-21T18:56:46.464Z,40.30
2018-02-21T18:59:14.691Z,37.73
2018-02-21T19:01:42.925Z,40.30
2018-02-21T19:04:10.402Z,36.37
2018-02-21T19:06:37.861Z,35.33
2018-02-21T19:09:05.308Z,37.27
2018-02-21T19:11:32.773Z,38.17
2018-02-21T19:14:00.244Z,40.07
2018-02-21T19:16:27.700Z,37.20
2018-02-21T19:18:55.158Z,38.50
2018-02-21T19:21:22.622Z,36.20
2018-02-21T19:23:50.068Z,41.37
2018-02-21T19:26:17.524Z,41.77
2018-02-21T19:28:44.972Z,49.17
2018-02-21T19:31:12.462Z,62.83
2018-02-21T19:33:39.897Z,54.23
2018-02-21T19:36:07.352Z,52.00
2018-02-21T19:38:35.572Z,47.63
2018-02-21T19:41:03.038Z,59.43
2018-02-21T19:43:30.488Z,54.97
2018-02-21T19:45:57.952Z,47.10
2018-02-21T19:48:25.408Z,44.80
2018-02-21T19:50:52.864Z,40.67
2018-02-21T19:53:20.366Z,38.60
2018-02-21T19:55:47.810Z,44.53
2018-02-21T19:58:15.273Z,31.33
2018-02-21T20:00:42.745Z,35.83
2018-02-21T20:03:10.210Z,36.50
2018-02-21T20:05:37.660Z,35.13
2018-02-21T20:08:05.121Z,35.77
2018-02-21T20:10:32.585Z,37.40
2018-02-21T20:13:00.056Z,39.40
2018-02-21T20:15:27.514Z,37.37
2018-02-21T20:17:54.989Z,39.57
2018-02-21T20:20:22.452Z,38.90
2018-02-21T20:22:49.939Z,38.40
2018-02-21T20:25:17.403Z,34.57
2018-02-21T20:27:45.634Z,39.03
2018-02-21T20:30:13.127Z,37.03
2018-02-21T20:32:40.559Z,38.80
2018-02-21T20:35:08.012Z,38.57
2018-02-21T20:37:35.489Z,39.20
2018-02-21T20:40:02.958Z,39.50
2018-02-21T20:42:30.417Z,41.07
2018-02-21T20:44:57.886Z,38.20
2018-02-21T20:47:25.345Z,37.87
2018-02-21T20:49:52.802Z,35.10
2018-02-21T20:52:20.268Z,34.07
2018-02-21T20:54:47.724Z,33.37
2018-02-21T20:57:15.192Z,35.87
2018-02-21T20:59:43.416Z,36.43
2018-02-21T21:02:11.642Z,34.03
2018-02-21T21:04:39.094Z,37.30
2018-02-21T21:07:06.553Z,36.77
2018-02-21T21:09:34.013Z,34.67
2018-02-21T21:12:01.495Z,38.23
2018-02-21T21:14:28.939Z,34.80
2018-02-21T21:16:56.412Z,37.33
2018-02-21T21:19:23.877Z,34.70
2018-02-21T21:21:51.337Z,35.60
2018-02-21T21:24:18.815Z,39.27
2018-02-21T21:26:47.053Z,35.30
2018-02-21T21:29:14.516Z,36.03
2018-02-21T21:31:41.982Z,38.67
2018-02-21T21:34:09.456Z,36.93
2018-02-21T21:36:36.907Z,36.30
2018-02-21T21:39:04.365Z,29.97
2018-02-21T21:41:31.813Z,36.07
2018-02-21T21:44:00.054Z,36.53
2018-02-21T21:46:27.505Z,32.60
2018-02-21T21:48:54.972Z,34.83
2018-02-21T21:51:22.436Z,35.63
2018-02-21T21:53:49.919Z,34.53
2018-02-21T21:56:17.354Z,32.13
2018-02-21T21:58:44.826Z,35.47
2018-02-21T22:01:12.288Z,37.40
2018-02-21T22:03:39.748Z,35.57
2018-02-21T22:06:07.212Z,38.20
2018-02-21T22:08:34.676Z,34.80
2018-02-21T22:11:02.138Z,37.33
2018-02-21T22:13:29.607Z,38.43
2018-02-21T22:15:57.061Z,35.93
2018-02-21T22:18:24.536Z,33.90
2018-02-21T22:20:52.005Z,38.90
2018-02-21T22:23:19.466Z,37.93
2018-02-21T22:25:46.922Z,35.63
2018-02-21T22:28:14.392Z,38.10
2018-02-21T22:30:41.833Z,38.77
2018-02-21T22:33:09.327Z,38.20
2018-02-21T22:35:37.534Z,35.17
2018-02-21T22:38:04.994Z,37.07
2018-02-21T22:40:33.217Z,35.97
2018-02-21T22:43:00.689Z,36.80
2018-02-21T22:45:28.145Z,39.17
2018-02-21T22:47:55.661Z,37.40
2018-02-21T22:50:23.874Z,37.93
2018-02-21T22:52:51.328Z,37.47
2018-02-21T22:55:18.867Z,42.47
2018-02-21T22:57:46.325Z,36.77
2018-02-21T23:00:13.792Z,38.23
2018-02-21T23:02:41.248Z,36.83
2018-02-21T23:05:08.709Z,36.70
2018-02-21T23:07:36.173Z,34.67
2018-02-21T23:10:03.633Z,37.43
2018-02-21T23:12:31.087Z,40.03
2018-02-21T23:14:58.549Z,39.13
2018-02-21T23:17:26.005Z,44.50
2018-02-21T23:19:53.474Z,43.20
2018-02-21T23:22:20.934Z,37.73
2018-02-21T23:24:48.398Z,38.40
2018-02-21T23:27:16.622Z,40.30
2018-02-21T23:29:44.101Z,37.87
2018-02-21T23:32:11.578Z,40.17
2018-02-21T23:34:39.042Z,41.47
2018-02-21T23:37:06.502Z,40.17
2018-02-21T23:39:33.965Z,38.07
2018-02-21T23:42:01.424Z,41.77
2018-02-21T23:44:28.876Z,40.70
2018-02-21T23:46:56.340Z,37.97
2018-02-21T23:49:23.806Z,39.03
2018-02-21T23:51:51.265Z,37.50
2018-02-21T23:54:18.720Z,37.57
2018-02-21T23:56:46.170Z,38.67
2018-02-21T23:59:13.629Z,39.40
